Terminal Aerodrome Forecast
Issued by NWS Binghamton, NY

Current Version | Previous Version | Text Only | Print | Product List | Glossary On
Versions: 1 2 3 4 5 6 7 8 9 10 11 12 13 14 15 16 17 18 19 20 21 22 23
000
FTUS41 KBGM 281100
TAFBGM
TAF
KBGM 281138Z 2812/2912 34012KT P6SM SCT015 OVC100
      TEMPO 2812/2814 -SHSN OVC015
     FM281500 33012G20KT P6SM SCT025 OVC040
     FM290100 33008KT P6SM SCT025 BKN035=

USA.gov is the U.S. government's official web portal to all federal, state and local government web resources and services.